SPGM

Tingo Maria Airport

Tingo Maria, Peru
SPGM 221100Z 2212/2312 00000KT 8000 SCT040 TX33/2219Z TN20/2310Z FM221500 06005KT 9999 FEW040
Issued Valid From Valid To
Sep-22 @ 11:00 UTC
(4 hours ago)
Sep-22 @ 12:00 UTC
(3 hours ago)
Sep-23 @ 12:00 UTC
(in 21 hours)
to
to
SPGM 221100Z 2212/2312 00000KT 8000 SCT040 TX33/2219Z TN20/2310Z FM221500 06005KT 9999 FEW040
Issued Sep-22 @ 11:00 UTC
(4 hours ago)
Valid From Sep-22 @ 12:00 UTC
(3 hours ago)
Valid To Sep-23 @ 12:00 UTC
(in 21 hours)
-
-